Time;durP1;ratioP1;P1;durP2;ratioP2;P2;SDS_P1;SDS_P2;PMS_P1;PMS_P2;Temp;Humidity;BMP_temperature;BMP_pressure;BME280_temperature;BME280_humidity;BME280_pressure;Samples;Min_cycle;Max_cycle;Signal;HPM_P1;HPM_P2
2022/01/15 00:01:48;;;;;;;;;;;5.90;99.90;;;;;;5070980;28;19920;-74
2022/01/15 00:04:14;;;;;;;;;;;5.80;99.90;;;;;;5070909;28;19920;-75
2022/01/15 00:06:39;;;;;;;;;;;5.80;99.90;;;;;;5054299;28;19921;-75
2022/01/15 00:09:05;;;;;;;;;;;5.80;99.90;;;;;;5087129;28;20002;-77
2022/01/15 00:11:31;;;;;;;;;;;5.80;99.90;;;;;;5087784;28;19928;-75
2022/01/15 00:14:12;;;;;;;;;;;5.80;99.90;;;;;;5094819;28;19924;-75
2022/01/15 00:16:46;;;;;;;;;;;5.80;99.90;;;;;;5068713;28;19973;-75
2022/01/15 00:19:14;;;;;;;;;;;5.80;99.90;;;;;;5091023;28;19920;-75
2022/01/15 00:21:40;;;;;;;;;;;5.80;99.90;;;;;;5073792;28;19943;-75
2022/01/15 00:24:06;;;;;;;;;;;5.80;99.90;;;;;;5073651;28;19920;-75
2022/01/15 00:26:32;;;;;;;;;;;5.80;99.90;;;;;;5072638;28;19927;-75
2022/01/15 00:28:58;;;;;;;;;;;5.80;99.90;;;;;;5107329;28;19920;-75
2022/01/15 00:31:23;;;;;;;;;;;5.80;99.90;;;;;;5108142;28;19946;-77
2022/01/15 00:33:49;;;;;;;;;;;5.80;99.90;;;;;;5073836;28;19927;-75
2022/01/15 00:36:15;;;;;;;;;;;5.80;99.90;;;;;;5107663;28;19920;-75
2022/01/15 00:38:41;;;;;;;;;;;5.80;99.90;;;;;;5074451;28;19924;-75
2022/01/15 00:41:07;;;;;;;;;;;5.80;99.90;;;;;;5073422;28;20412;-75
2022/01/15 00:43:32;;;;;;;;;;;5.80;99.90;;;;;;5074028;28;20008;-75
2022/01/15 00:45:58;;;;;;;;;;;5.80;99.90;;;;;;5074400;28;20031;-75
2022/01/15 00:48:24;;;;;;;;;;;5.80;99.90;;;;;;5073902;28;19997;-78
2022/01/15 00:50:50;;;;;;;;;;;5.80;99.90;;;;;;5073737;28;19920;-78
2022/01/15 00:53:16;;;;;;;;;;;5.80;99.90;;;;;;5107341;28;19931;-75
2022/01/15 00:55:41;;;;;;;;;;;5.80;99.90;;;;;;5074493;28;19931;-75
2022/01/15 00:58:07;;;;;;;;;;;5.80;99.90;;;;;;5094268;28;19973;-75
2022/01/15 01:00:32;;;;;;;;;;;5.80;99.90;;;;;;5094377;28;19965;-75
2022/01/15 01:02:58;;;;;;;;;;;5.80;99.90;;;;;;5077108;28;19920;-77
2022/01/15 01:05:23;;;;;;;;;;;5.80;99.90;;;;;;5094124;28;19954;-75
2022/01/15 01:07:49;;;;;;;;;;;5.80;99.90;;;;;;5077362;28;19926;-75
2022/01/15 01:23:38;;;;;;;;;;;5.80;99.90;;;;;;5094169;28;19920;-75
2022/01/15 01:26:13;;;;;;;;;;;5.80;99.90;;;;;;5110589;28;20383;-75
2022/01/15 01:28:45;;;;;;;;;;;5.80;99.90;;;;;;5110468;28;20008;-75
2022/01/15 01:31:20;;;;;;;;;;;5.80;99.90;;;;;;5077308;28;20294;-77
2022/01/15 01:33:50;;;;;;;;;;;5.90;99.90;;;;;;5093781;28;19974;-75
2022/01/15 01:41:07;;;;;;;;;;;5.80;99.90;;;;;;5093664;28;20267;-75
2022/01/15 01:46:51;;;;;;;;;;;5.80;99.90;;;;;;5093473;28;20011;-75
2022/01/15 01:48:54;;;;;;;;;;;5.80;99.90;;;;;;5084975;28;19963;-77
2022/01/15 01:51:34;;;;;;;;;;;5.80;99.90;;;;;;5110347;28;19920;-75
2022/01/15 01:54:01;;;;;;;;;;;5.80;99.90;;;;;;5109963;28;19920;-75
2022/01/15 01:56:27;;;;;;;;;;;5.80;99.90;;;;;;5110211;28;19924;-75
2022/01/15 01:58:52;;;;;;;;;;;5.80;99.90;;;;;;5110327;28;19945;-75
2022/01/15 02:01:18;;;;;;;;;;;5.80;99.90;;;;;;5076116;28;19927;-75
2022/01/15 02:03:43;;;;;;;;;;;5.80;99.90;;;;;;5109564;28;19920;-75
2022/01/15 02:06:09;;;;;;;;;;;5.80;99.90;;;;;;5109349;28;19920;-75
2022/01/15 02:08:36;;;;;;;;;;;5.80;99.90;;;;;;5110070;28;20041;-75
2022/01/15 02:11:03;;;;;;;;;;;5.80;99.90;;;;;;5110137;28;19920;-75
2022/01/15 02:13:29;;;;;;;;;;;5.80;99.90;;;;;;5109998;28;19920;-75
2022/01/15 02:15:58;;;;;;;;;;;5.80;99.90;;;;;;5126410;27;20411;-78
2022/01/15 02:18:25;;;;;;;;;;;5.70;99.90;;;;;;5109401;28;20309;-76
2022/01/15 02:23:51;;;;;;;;;;;5.80;99.90;;;;;;5090794;28;19931;-75
2022/01/15 02:26:19;;;;;;;;;;;5.80;99.90;;;;;;5092714;28;20423;-75
2022/01/15 02:28:45;;;;;;;;;;;5.80;99.90;;;;;;5075776;28;20401;-74
2022/01/15 02:31:13;;;;;;;;;;;5.80;99.90;;;;;;5092517;28;19974;-75
2022/01/15 02:33:39;;;;;;;;;;;5.70;99.90;;;;;;5109539;28;20294;-76
2022/01/15 02:36:06;;;;;;;;;;;5.80;99.90;;;;;;5109424;28;20301;-75
2022/01/15 02:38:32;;;;;;;;;;;5.80;99.90;;;;;;5075300;28;19945;-75
2022/01/15 02:40:58;;;;;;;;;;;5.80;99.90;;;;;;5092328;28;19949;-75
2022/01/15 02:43:31;;;;;;;;;;;5.80;99.90;;;;;;5075330;28;19927;-75
2022/01/15 02:46:00;;;;;;;;;;;5.80;99.90;;;;;;5092040;28;20391;-75
2022/01/15 02:48:28;;;;;;;;;;;5.90;99.90;;;;;;5092287;28;19924;-75
2022/01/15 02:50:55;;;;;;;;;;;5.80;99.90;;;;;;5075557;28;20003;-75
2022/01/15 02:53:21;;;;;;;;;;;5.80;99.90;;;;;;5092243;28;19927;-75
2022/01/15 02:55:50;;;;;;;;;;;5.70;99.90;;;;;;5075625;28;19920;-75
2022/01/15 02:58:17;;;;;;;;;;;5.70;99.90;;;;;;5075162;28;19928;-75
2022/01/15 03:00:42;;;;;;;;;;;5.70;99.90;;;;;;5075376;28;20026;-76
2022/01/15 03:03:08;;;;;;;;;;;5.70;99.90;;;;;;5092098;28;20382;-75
2022/01/15 03:05:33;;;;;;;;;;;5.70;99.90;;;;;;5075164;28;20379;-76
2022/01/15 03:07:59;;;;;;;;;;;5.70;99.90;;;;;;5108766;28;19921;-75
2022/01/15 03:10:25;;;;;;;;;;;5.70;99.90;;;;;;5109039;28;20006;-75
2022/01/15 03:12:54;;;;;;;;;;;5.70;99.90;;;;;;5108278;28;19924;-75
2022/01/15 03:15:19;;;;;;;;;;;5.70;99.90;;;;;;5091676;28;19935;-77
2022/01/15 03:17:46;;;;;;;;;;;5.70;99.90;;;;;;5073963;28;20070;-75
2022/01/15 03:20:12;;;;;;;;;;;5.70;99.90;;;;;;5104645;28;19963;-75
2022/01/15 03:22:37;;;;;;;;;;;5.70;99.90;;;;;;5071351;28;19967;-75
2022/01/15 03:25:03;;;;;;;;;;;5.70;99.90;;;;;;5088797;28;19921;-75
2022/01/15 03:27:28;;;;;;;;;;;5.70;99.90;;;;;;5088507;28;19920;-75
2022/01/15 03:29:54;;;;;;;;;;;5.70;99.90;;;;;;5105132;28;20012;-75
2022/01/15 03:32:20;;;;;;;;;;;5.80;99.90;;;;;;5090519;28;19969;-75
2022/01/15 03:34:46;;;;;;;;;;;5.70;99.90;;;;;;5074452;28;19927;-75
2022/01/15 03:37:11;;;;;;;;;;;5.70;99.90;;;;;;5074456;28;20324;-75
2022/01/15 03:39:38;;;;;;;;;;;5.70;99.90;;;;;;5073920;28;21252;-75
2022/01/15 03:42:11;;;;;;;;;;;5.70;99.90;;;;;;5074147;28;19963;-78
2022/01/15 03:44:41;;;;;;;;;;;5.70;99.90;;;;;;5108619;28;20333;-75
2022/01/15 03:47:06;;;;;;;;;;;5.60;99.90;;;;;;5108337;28;19931;-75
2022/01/15 03:49:32;;;;;;;;;;;5.70;99.90;;;;;;5108247;28;20298;-74
2022/01/15 03:51:57;;;;;;;;;;;5.60;99.90;;;;;;5108536;28;19920;-75
2022/01/15 03:54:23;;;;;;;;;;;5.60;99.90;;;;;;5074057;28;19974;-75
2022/01/15 03:56:48;;;;;;;;;;;5.60;99.90;;;;;;5074589;28;20294;-78
2022/01/15 03:59:14;;;;;;;;;;;5.60;99.90;;;;;;5074035;28;19999;-75
2022/01/15 04:01:39;;;;;;;;;;;5.60;99.90;;;;;;5074506;28;19920;-75
2022/01/15 04:04:05;;;;;;;;;;;5.60;99.90;;;;;;5074234;28;20104;-76
2022/01/15 04:06:30;;;;;;;;;;;5.60;99.90;;;;;;5091229;28;19943;-74
2022/01/15 04:08:56;;;;;;;;;;;5.60;99.90;;;;;;5074105;28;20019;-75
2022/01/15 04:11:21;;;;;;;;;;;5.60;99.90;;;;;;5108589;28;19920;-75
2022/01/15 04:13:47;;;;;;;;;;;5.60;99.90;;;;;;5074522;28;20382;-75
2022/01/15 04:16:13;;;;;;;;;;;5.60;99.90;;;;;;5091147;28;20412;-75
2022/01/15 04:18:41;;;;;;;;;;;5.60;99.90;;;;;;5074398;28;19920;-75
2022/01/15 04:21:09;;;;;;;;;;;5.60;99.90;;;;;;5090730;28;19928;-75
2022/01/15 04:23:35;;;;;;;;;;;5.70;99.90;;;;;;5098456;22;20896;-76
2022/01/15 04:26:01;;;;;;;;;;;5.60;99.90;;;;;;4998191;28;19921;-77
2022/01/15 04:28:28;;;;;;;;;;;5.50;99.90;;;;;;5030623;28;20031;-76
2022/01/15 04:30:54;;;;;;;;;;;5.50;99.90;;;;;;5033071;28;19921;-76
2022/01/15 04:33:19;;;;;;;;;;;5.60;99.90;;;;;;5017634;28;19921;-76
2022/01/15 04:35:45;;;;;;;;;;;5.50;99.90;;;;;;5009303;28;19925;-76
2022/01/15 04:38:12;;;;;;;;;;;5.50;99.90;;;;;;5016986;28;20016;-76
2022/01/15 04:40:38;;;;;;;;;;;5.50;99.90;;;;;;5034266;28;19921;-76
2022/01/15 04:43:03;;;;;;;;;;;5.50;99.90;;;;;;5017585;28;20318;-77
2022/01/15 04:45:29;;;;;;;;;;;5.50;99.90;;;;;;5033155;28;20033;-76
2022/01/15 04:47:54;;;;;;;;;;;5.50;99.90;;;;;;5024142;28;20321;-76
2022/01/15 04:50:21;;;;;;;;;;;5.50;99.90;;;;;;5034281;28;19921;-76
2022/01/15 04:52:47;;;;;;;;;;;5.50;99.90;;;;;;5033814;28;19960;-76
2022/01/15 04:55:13;;;;;;;;;;;5.50;99.90;;;;;;5033979;28;19975;-77
2022/01/15 04:57:39;;;;;;;;;;;5.50;99.90;;;;;;5034216;28;20024;-77
2022/01/15 05:00:05;;;;;;;;;;;5.50;99.90;;;;;;5030395;28;19931;-77
2022/01/15 05:02:31;;;;;;;;;;;5.40;99.90;;;;;;5033850;28;20011;-77
2022/01/15 05:04:56;;;;;;;;;;;5.40;99.90;;;;;;5016858;28;19964;-77
2022/01/15 05:07:22;;;;;;;;;;;5.40;99.90;;;;;;5033848;28;19925;-76
2022/01/15 05:09:48;;;;;;;;;;;5.40;99.90;;;;;;5033523;28;19928;-77
2022/01/15 05:12:31;;;;;;;;;;;5.40;99.90;;;;;;5033354;28;19921;-77
2022/01/15 05:14:56;;;;;;;;;;;5.30;99.90;;;;;;5033518;28;19925;-77
2022/01/15 05:17:22;;;;;;;;;;;5.30;99.90;;;;;;5033541;28;19925;-77
2022/01/15 05:19:47;;;;;;;;;;;5.30;99.90;;;;;;5033504;28;19932;-76
2022/01/15 05:22:12;;;;;;;;;;;5.30;99.90;;;;;;5033891;28;20386;-77
2022/01/15 05:24:38;;;;;;;;;;;5.30;99.90;;;;;;5032573;28;19921;-77
2022/01/15 05:27:03;;;;;;;;;;;5.30;99.90;;;;;;5033739;28;19921;-77
2022/01/15 05:29:29;;;;;;;;;;;5.30;99.90;;;;;;5033566;28;19944;-76
2022/01/15 05:31:54;;;;;;;;;;;5.30;99.90;;;;;;5016582;28;19975;-76
2022/01/15 05:34:20;;;;;;;;;;;5.30;99.90;;;;;;5016132;28;20397;-77
2022/01/15 05:36:46;;;;;;;;;;;5.30;99.90;;;;;;5033129;28;20355;-77
2022/01/15 05:39:11;;;;;;;;;;;5.30;99.90;;;;;;5016789;28;19921;-77
2022/01/15 05:41:37;;;;;;;;;;;5.20;99.90;;;;;;5027070;28;19925;-77
2022/01/15 05:44:03;;;;;;;;;;;5.30;99.90;;;;;;5032615;28;19946;-76
2022/01/15 05:46:29;;;;;;;;;;;5.30;99.90;;;;;;5032411;28;19928;-77
2022/01/15 05:48:54;;;;;;;;;;;5.30;99.90;;;;;;5017275;28;19925;-77
2022/01/15 05:51:20;;;;;;;;;;;5.20;99.90;;;;;;5013584;28;19928;-77
2022/01/15 05:53:45;;;;;;;;;;;5.20;99.90;;;;;;5020267;28;19928;-77
2022/01/15 05:56:11;;;;;;;;;;;5.20;99.90;;;;;;5032609;28;19964;-77
2022/01/15 05:58:36;;;;;;;;;;;5.20;99.90;;;;;;5032880;28;19921;-77
2022/01/15 06:01:02;;;;;;;;;;;5.20;99.90;;;;;;5015544;28;19921;-77
2022/01/15 06:03:28;;;;;;;;;;;5.20;99.90;;;;;;5015845;28;19939;-76
2022/01/15 06:05:53;;;;;;;;;;;5.20;99.90;;;;;;5032712;28;20489;-77
2022/01/15 06:08:18;;;;;;;;;;;5.20;99.90;;;;;;5015597;28;19928;-76
2022/01/15 06:10:44;;;;;;;;;;;5.20;99.90;;;;;;5032959;28;19975;-77
2022/01/15 06:13:09;;;;;;;;;;;5.20;99.90;;;;;;5014922;28;19921;-77
2022/01/15 06:15:35;;;;;;;;;;;5.20;99.90;;;;;;5032536;28;19927;-77
2022/01/15 06:18:00;;;;;;;;;;;5.20;99.90;;;;;;5032286;28;19924;-77
2022/01/15 06:20:26;;;;;;;;;;;5.20;99.90;;;;;;5029138;28;19929;-77
2022/01/15 06:22:51;;;;;;;;;;;5.20;99.90;;;;;;5031873;28;19924;-77
2022/01/15 06:25:17;;;;;;;;;;;5.20;99.90;;;;;;5015828;28;20426;-77
2022/01/15 06:27:42;;;;;;;;;;;5.20;99.90;;;;;;5015604;28;19928;-77
2022/01/15 06:30:08;;;;;;;;;;;5.10;99.90;;;;;;5032585;28;20016;-77
2022/01/15 06:32:36;;;;;;;;;;;5.10;99.90;;;;;;5031813;28;20016;-77
2022/01/15 06:35:06;;;;;;;;;;;5.10;99.90;;;;;;5031501;28;19987;-77
2022/01/15 06:37:31;;;;;;;;;;;5.10;99.90;;;;;;5031810;28;19925;-77
2022/01/15 06:39:57;;;;;;;;;;;5.10;99.90;;;;;;5015827;28;19975;-77
2022/01/15 06:42:22;;;;;;;;;;;5.10;99.90;;;;;;5031815;28;19921;-77
2022/01/15 06:44:48;;;;;;;;;;;5.10;99.90;;;;;;5031120;28;19924;-76
2022/01/15 06:47:13;;;;;;;;;;;5.00;99.90;;;;;;5032140;28;19921;-77
2022/01/15 06:49:39;;;;;;;;;;;5.00;99.90;;;;;;5015593;28;19921;-77
2022/01/15 06:52:04;;;;;;;;;;;5.00;99.90;;;;;;4998421;28;19999;-76
2022/01/15 06:54:30;;;;;;;;;;;5.00;99.90;;;;;;5009140;28;19983;-76
2022/01/15 06:56:55;;;;;;;;;;;5.00;99.90;;;;;;5031568;28;19925;-76
2022/01/15 06:59:22;;;;;;;;;;;5.00;99.90;;;;;;5014726;28;19921;-76
2022/01/15 07:01:48;;;;;;;;;;;5.00;99.90;;;;;;5017693;28;20398;-77
2022/01/15 07:04:13;;;;;;;;;;;5.00;99.90;;;;;;5023909;28;19921;-77
2022/01/15 07:06:39;;;;;;;;;;;5.00;99.90;;;;;;5031591;28;20450;-76
2022/01/15 07:09:04;;;;;;;;;;;5.00;99.90;;;;;;5031473;28;19979;-77
2022/01/15 07:11:30;;;;;;;;;;;5.00;99.90;;;;;;5031487;28;19932;-76
2022/01/15 07:13:55;;;;;;;;;;;5.00;99.90;;;;;;5031089;28;19921;-76
2022/01/15 07:16:21;;;;;;;;;;;4.90;99.90;;;;;;5033599;28;19964;-77
2022/01/15 07:18:46;;;;;;;;;;;5.00;99.90;;;;;;5031950;28;19920;-78
2022/01/15 07:21:12;;;;;;;;;;;4.90;99.90;;;;;;5032437;28;19921;-77
2022/01/15 07:23:38;;;;;;;;;;;4.90;99.90;;;;;;5030988;28;20286;-77
2022/01/15 07:26:03;;;;;;;;;;;5.00;99.90;;;;;;5030410;28;19937;-77
2022/01/15 07:28:30;;;;;;;;;;;4.90;99.90;;;;;;5030917;28;19967;-77
2022/01/15 07:30:56;;;;;;;;;;;4.90;99.90;;;;;;5030988;28;19971;-77
2022/01/15 07:33:21;;;;;;;;;;;4.90;99.90;;;;;;5038886;28;19921;-76
2022/01/15 07:35:47;;;;;;;;;;;4.90;99.90;;;;;;5026682;28;19925;-77
2022/01/15 07:38:13;;;;;;;;;;;4.90;99.90;;;;;;5012215;28;19930;-77
2022/01/15 07:40:39;;;;;;;;;;;4.80;99.90;;;;;;5011377;28;20020;-77
2022/01/15 07:43:04;;;;;;;;;;;4.80;99.90;;;;;;5019310;28;19975;-77
2022/01/15 07:45:30;;;;;;;;;;;4.80;99.90;;;;;;5011276;28;19968;-77
2022/01/15 07:47:55;;;;;;;;;;;4.80;99.90;;;;;;5011411;28;20177;-76
2022/01/15 07:50:24;;;;;;;;;;;4.80;99.90;;;;;;5029058;28;20410;-77
2022/01/15 07:52:51;;;;;;;;;;;4.80;99.90;;;;;;5029278;28;20013;-77
2022/01/15 07:55:16;;;;;;;;;;;4.80;99.90;;;;;;5030216;28;19921;-77
2022/01/15 07:57:43;;;;;;;;;;;4.80;99.90;;;;;;5030753;28;20305;-77
2022/01/15 08:00:13;;;;;;;;;;;4.80;99.90;;;;;;5014334;28;20379;-77
2022/01/15 08:02:38;;;;;;;;;;;4.80;99.90;;;;;;5030806;28;19921;-77
2022/01/15 08:05:05;;;;;;;;;;;4.80;99.90;;;;;;5031537;28;20394;-77
2022/01/15 08:07:30;;;;;;;;;;;4.80;99.90;;;;;;5018132;28;19929;-77
2022/01/15 08:09:55;;;;;;;;;;;4.80;99.90;;;;;;5034931;28;20445;-77
2022/01/15 08:12:22;;;;;;;;;;;4.70;99.90;;;;;;5018584;28;20468;-77
2022/01/15 08:14:49;;;;;;;;;;;4.80;99.90;;;;;;5034566;28;20018;-77
2022/01/15 08:17:14;;;;;;;;;;;4.80;99.90;;;;;;5034067;28;19929;-77
2022/01/15 08:19:40;;;;;;;;;;;4.70;99.90;;;;;;5035050;28;19928;-77
2022/01/15 08:22:05;;;;;;;;;;;4.70;99.90;;;;;;5034613;28;19927;-77
2022/01/15 08:24:31;;;;;;;;;;;4.70;99.90;;;;;;5034221;28;19975;-77
2022/01/15 08:26:56;;;;;;;;;;;4.70;99.90;;;;;;5018060;28;19928;-77
2022/01/15 08:29:22;;;;;;;;;;;4.70;99.90;;;;;;5034800;28;19928;-77
2022/01/15 08:31:47;;;;;;;;;;;4.70;99.90;;;;;;5010983;28;20012;-77
2022/01/15 08:34:13;;;;;;;;;;;4.70;99.90;;;;;;5030692;28;19921;-77
2022/01/15 08:36:38;;;;;;;;;;;4.70;99.90;;;;;;5034358;28;19976;-77
2022/01/15 08:39:04;;;;;;;;;;;4.70;99.90;;;;;;5017762;28;19925;-77
2022/01/15 08:41:30;;;;;;;;;;;4.60;99.90;;;;;;5034264;28;19952;-77
2022/01/15 08:43:55;;;;;;;;;;;4.70;99.90;;;;;;5033867;28;19925;-77
2022/01/15 08:46:21;;;;;;;;;;;4.60;99.90;;;;;;5031591;28;19978;-77
2022/01/15 08:48:46;;;;;;;;;;;4.70;99.90;;;;;;5014376;28;20387;-77
2022/01/15 08:51:12;;;;;;;;;;;4.60;99.90;;;;;;5014299;28;19928;-77
2022/01/15 08:53:38;;;;;;;;;;;4.60;99.90;;;;;;5023034;28;19928;-77
2022/01/15 08:56:03;;;;;;;;;;;4.60;99.90;;;;;;5034009;28;19947;-77
2022/01/15 08:58:29;;;;;;;;;;;4.70;99.90;;;;;;5017382;28;19948;-77
2022/01/15 09:00:55;;;;;;;;;;;4.60;99.90;;;;;;5034023;28;20011;-77
2022/01/15 09:03:22;;;;;;;;;;;4.60;99.90;;;;;;5015543;28;20421;-77
2022/01/15 09:05:47;;;;;;;;;;;4.60;99.90;;;;;;5033901;28;19921;-77
2022/01/15 09:08:13;;;;;;;;;;;4.60;99.90;;;;;;5033957;28;19921;-77
2022/01/15 09:10:41;;;;;;;;;;;4.70;99.90;;;;;;5033750;28;19964;-77
2022/01/15 09:13:08;;;;;;;;;;;4.60;99.90;;;;;;5031742;28;19964;-77
2022/01/15 09:15:34;;;;;;;;;;;4.60;99.90;;;;;;5033774;28;20004;-77
2022/01/15 09:18:00;;;;;;;;;;;4.60;99.90;;;;;;5032786;28;20024;-77
2022/01/15 09:20:25;;;;;;;;;;;4.60;99.90;;;;;;5033570;28;20571;-77
2022/01/15 09:22:51;;;;;;;;;;;4.70;99.90;;;;;;5033592;28;19921;-77
2022/01/15 09:25:16;;;;;;;;;;;4.70;99.90;;;;;;5033600;28;19968;-77
2022/01/15 09:30:26;;;;;;;;;;;4.60;99.90;;;;;;5013615;28;19928;-77
2022/01/15 09:32:53;;;;;;;;;;;4.60;99.90;;;;;;5004503;28;20011;-77
2022/01/15 09:35:20;;;;;;;;;;;4.60;99.90;;;;;;5033244;28;19921;-77
2022/01/15 09:37:49;;;;;;;;;;;4.60;99.90;;;;;;5033284;28;20272;-77
2022/01/15 09:40:15;;;;;;;;;;;4.60;99.90;;;;;;5033134;28;19929;-77
2022/01/15 09:42:44;;;;;;;;;;;4.60;99.90;;;;;;5028202;28;19929;-77
2022/01/15 09:45:10;;;;;;;;;;;4.70;99.90;;;;;;5033016;28;19928;-77
2022/01/15 09:47:36;;;;;;;;;;;4.70;99.90;;;;;;5033105;28;19921;-77
2022/01/15 09:50:05;;;;;;;;;;;4.70;99.90;;;;;;5033030;28;19921;-77
2022/01/15 09:52:32;;;;;;;;;;;4.80;99.90;;;;;;5016362;28;19999;-77
2022/01/15 09:54:58;;;;;;;;;;;4.70;99.90;;;;;;5032743;28;20075;-77
2022/01/15 09:57:23;;;;;;;;;;;4.70;99.90;;;;;;5019692;28;20008;-77
2022/01/15 09:59:49;;;;;;;;;;;4.70;99.90;;;;;;5013088;28;19928;-77
2022/01/15 10:02:16;;;;;;;;;;;4.70;99.90;;;;;;5047660;28;19932;-77
2022/01/15 10:04:42;;;;;;;;;;;4.70;99.90;;;;;;5012731;28;19922;-77
2022/01/15 10:07:14;;;;;;;;;;;4.70;99.90;;;;;;5012948;28;20620;-77
2022/01/15 10:09:41;;;;;;;;;;;4.70;99.90;;;;;;5027881;28;19921;-76
2022/01/15 10:12:07;;;;;;;;;;;4.70;99.90;;;;;;5031604;28;19928;-77
2022/01/15 10:14:34;;;;;;;;;;;4.70;99.90;;;;;;5030933;28;19921;-77
2022/01/15 10:17:01;;;;;;;;;;;4.70;99.90;;;;;;5031689;28;19925;-76
2022/01/15 10:19:36;;;;;;;;;;;4.70;99.90;;;;;;5032080;28;19975;-77
2022/01/15 10:22:05;;;;;;;;;;;4.70;99.90;;;;;;5027599;28;20260;-75
2022/01/15 10:24:39;;;;;;;;;;;4.70;99.90;;;;;;5061503;22;19936;-77
2022/01/15 10:27:24;;;;;;;;;;;4.70;99.90;;;;;;5049759;28;19921;-79
2022/01/15 10:29:55;;;;;;;;;;;4.80;99.90;;;;;;5053420;28;19920;-79
2022/01/15 10:32:24;;;;;;;;;;;4.80;99.90;;;;;;5026548;28;20019;-78
2022/01/15 10:34:51;;;;;;;;;;;4.80;99.90;;;;;;5033259;28;20276;-78
2022/01/15 10:37:34;;;;;;;;;;;4.80;99.90;;;;;;5033032;28;20450;-78
2022/01/15 10:40:00;;;;;;;;;;;4.90;99.90;;;;;;5033159;28;19927;-78
2022/01/15 10:42:29;;;;;;;;;;;4.80;99.90;;;;;;5015081;28;20468;-79
2022/01/15 10:44:58;;;;;;;;;;;4.90;99.90;;;;;;5017705;28;19927;-79
2022/01/15 10:47:28;;;;;;;;;;;4.90;99.90;;;;;;5040188;28;20218;-79
2022/01/15 10:50:02;;;;;;;;;;;4.90;99.90;;;;;;5017107;28;19928;-79
2022/01/15 10:52:31;;;;;;;;;;;4.90;99.90;;;;;;5002636;28;20280;-78
2022/01/15 10:55:01;;;;;;;;;;;4.80;99.90;;;;;;5015682;28;19943;-77
2022/01/15 10:57:31;;;;;;;;;;;4.90;99.90;;;;;;5014570;28;20379;-77
2022/01/15 10:59:57;;;;;;;;;;;4.80;99.90;;;;;;5015532;28;19921;-77
2022/01/15 11:02:22;;;;;;;;;;;4.80;99.90;;;;;;5032106;28;20071;-79
2022/01/15 11:04:51;;;;;;;;;;;4.80;99.90;;;;;;5031474;28;20327;-76
2022/01/15 11:07:17;;;;;;;;;;;4.90;99.90;;;;;;5014912;28;20268;-75
2022/01/15 11:09:44;;;;;;;;;;;4.80;99.90;;;;;;5029699;28;19928;-75
2022/01/15 11:12:10;;;;;;;;;;;4.80;99.90;;;;;;5047605;28;19921;-75
2022/01/15 11:14:36;;;;;;;;;;;4.80;99.90;;;;;;5034221;28;20035;-75
2022/01/15 11:17:02;;;;;;;;;;;4.80;99.90;;;;;;5027917;28;20429;-75
2022/01/15 11:19:29;;;;;;;;;;;4.80;99.90;;;;;;4995306;28;19965;-75
2022/01/15 11:21:56;;;;;;;;;;;4.80;99.90;;;;;;5011510;28;20375;-75
2022/01/15 11:24:21;;;;;;;;;;;4.90;99.90;;;;;;5010949;28;19928;-75
2022/01/15 11:26:51;;;;;;;;;;;4.90;99.90;;;;;;5000844;28;20311;-75
2022/01/15 11:29:18;;;;;;;;;;;4.90;99.90;;;;;;5031219;28;19928;-75
2022/01/15 11:31:44;;;;;;;;;;;4.90;99.90;;;;;;5030264;28;19967;-75
2022/01/15 11:34:11;;;;;;;;;;;4.90;99.90;;;;;;5026206;28;20347;-76
2022/01/15 11:36:40;;;;;;;;;;;4.80;99.90;;;;;;5029327;28;19921;-77
2022/01/15 11:39:10;;;;;;;;;;;4.90;99.90;;;;;;5044401;28;20375;-75
2022/01/15 11:41:38;;;;;;;;;;;4.80;99.90;;;;;;5032179;28;20403;-76
2022/01/15 11:44:17;;;;;;;;;;;4.80;99.90;;;;;;5031616;28;19944;-75
2022/01/15 11:46:46;;;;;;;;;;;4.80;99.90;;;;;;5030830;28;19925;-75
2022/01/15 11:49:31;;;;;;;;;;;4.70;99.90;;;;;;5064363;28;20418;-77
2022/01/15 11:52:18;;;;;;;;;;;4.70;99.90;;;;;;5030407;28;19960;-75
2022/01/15 11:54:50;;;;;;;;;;;4.70;99.90;;;;;;5028058;28;19970;-75
2022/01/15 11:57:28;;;;;;;;;;;4.70;99.90;;;;;;5030132;28;19968;-75
2022/01/15 11:59:54;;;;;;;;;;;4.70;99.90;;;;;;5030680;28;19928;-76
2022/01/15 12:02:38;;;;;;;;;;;4.70;99.90;;;;;;5029480;28;19921;-75
2022/01/15 12:05:16;;;;;;;;;;;4.70;99.90;;;;;;5018115;28;19921;-75
2022/01/15 12:08:10;;;;;;;;;;;4.70;99.90;;;;;;5031619;28;19921;-76
2022/01/15 12:10:46;;;;;;;;;;;4.70;99.90;;;;;;5046186;28;19925;-75
2022/01/15 12:13:15;;;;;;;;;;;4.70;99.90;;;;;;5030715;28;19921;-75
2022/01/15 12:15:41;;;;;;;;;;;4.80;99.90;;;;;;5030543;28;19921;-75
2022/01/15 12:18:16;;;;;;;;;;;4.80;99.90;;;;;;5030758;28;19925;-74
2022/01/15 12:20:41;;;;;;;;;;;4.80;99.90;;;;;;5017368;28;19967;-75
2022/01/15 12:23:19;;;;;;;;;;;4.80;99.90;;;;;;5029954;28;19936;-75
2022/01/15 12:25:45;;;;;;;;;;;4.80;99.90;;;;;;5043952;28;19998;-75
2022/01/15 12:28:14;;;;;;;;;;;4.90;99.90;;;;;;5029884;28;19921;-75
2022/01/15 12:30:41;;;;;;;;;;;4.90;99.90;;;;;;5010098;28;19929;-75
2022/01/15 12:33:08;;;;;;;;;;;4.90;99.90;;;;;;5029518;28;19921;-75
2022/01/15 12:35:35;;;;;;;;;;;4.90;99.90;;;;;;5031314;28;19960;-75
2022/01/15 12:38:02;;;;;;;;;;;4.80;99.90;;;;;;5047124;28;20430;-75
2022/01/15 12:40:28;;;;;;;;;;;4.80;99.90;;;;;;5041968;28;19922;-75
2022/01/15 12:42:58;;;;;;;;;;;4.80;99.90;;;;;;5019184;28;20382;-75
2022/01/15 12:45:24;;;;;;;;;;;4.80;99.90;;;;;;5013335;28;19922;-75
2022/01/15 12:47:49;;;;;;;;;;;4.80;99.90;;;;;;5029388;28;20283;-75
2022/01/15 12:50:15;;;;;;;;;;;4.80;99.90;;;;;;5030137;28;19925;-75
2022/01/15 12:52:40;;;;;;;;;;;4.80;99.90;;;;;;5034633;28;20383;-75
2022/01/15 12:55:06;;;;;;;;;;;4.70;99.90;;;;;;5034058;28;19925;-75
2022/01/15 12:57:39;;;;;;;;;;;4.70;99.90;;;;;;5047985;28;19940;-75
2022/01/15 13:00:06;;;;;;;;;;;4.80;99.90;;;;;;5014105;28;20303;-75
2022/01/15 13:02:31;;;;;;;;;;;4.80;99.90;;;;;;5032791;28;19921;-75
2022/01/15 13:04:57;;;;;;;;;;;4.80;99.90;;;;;;5034554;28;19948;-75
2022/01/15 13:07:22;;;;;;;;;;;4.80;99.90;;;;;;5016829;28;19972;-75
2022/01/15 13:09:51;;;;;;;;;;;4.80;99.90;;;;;;5050010;28;20402;-75
2022/01/15 13:12:16;;;;;;;;;;;4.70;99.90;;;;;;5033616;28;20016;-75
2022/01/15 13:14:45;;;;;;;;;;;4.70;99.90;;;;;;5031215;28;20338;-75
2022/01/15 13:17:26;;;;;;;;;;;4.70;99.90;;;;;;5039043;28;19995;-75
2022/01/15 13:19:57;;;;;;;;;;;4.70;99.90;;;;;;5033302;28;19988;-74
2022/01/15 13:22:22;;;;;;;;;;;4.70;99.90;;;;;;5016923;28;20295;-74
2022/01/15 13:24:56;;;;;;;;;;;4.70;99.90;;;;;;5033338;28;19928;-74
2022/01/15 13:27:24;;;;;;;;;;;4.70;99.90;;;;;;5016466;28;19971;-74
2022/01/15 13:29:50;;;;;;;;;;;4.70;99.90;;;;;;5033617;28;19971;-74
2022/01/15 13:32:15;;;;;;;;;;;4.60;99.90;;;;;;5033247;28;19956;-74
2022/01/15 13:34:45;;;;;;;;;;;4.70;99.90;;;;;;5032757;28;20015;-74
2022/01/15 13:37:18;;;;;;;;;;;4.70;99.90;;;;;;5032517;28;20011;-74
2022/01/15 13:39:44;;;;;;;;;;;4.70;99.90;;;;;;5032800;28;19925;-74
2022/01/15 13:42:17;;;;;;;;;;;4.70;99.90;;;;;;5032534;28;19979;-74
2022/01/15 13:44:43;;;;;;;;;;;4.70;99.90;;;;;;5032644;28;19921;-74
2022/01/15 13:47:08;;;;;;;;;;;4.60;99.90;;;;;;5032276;28;19928;-76
2022/01/15 13:55:24;;;;;;;;;;;4.60;99.90;;;;;;5043506;28;19963;-76
2022/01/15 13:57:52;;;;;;;;;;;4.60;99.90;;;;;;5024381;28;19952;-75
2022/01/15 14:00:17;;;;;;;;;;;4.60;99.90;;;;;;5008161;28;19925;-76
2022/01/15 14:02:44;;;;;;;;;;;4.70;99.90;;;;;;5013316;28;19928;-75
2022/01/15 14:05:18;;;;;;;;;;;4.70;99.90;;;;;;5031177;28;20355;-75
2022/01/15 14:07:46;;;;;;;;;;;4.60;99.90;;;;;;5030450;28;20453;-75
2022/01/15 14:10:13;;;;;;;;;;;4.60;99.90;;;;;;5032114;28;20446;-76
2022/01/15 14:12:41;;;;;;;;;;;4.70;99.90;;;;;;5032317;28;19977;-75
2022/01/15 14:15:14;;;;;;;;;;;4.60;99.90;;;;;;5028040;28;20015;-76
2022/01/15 14:17:43;;;;;;;;;;;4.60;99.90;;;;;;5026198;28;19925;-74
2022/01/15 14:22:41;;;;;;;;;;;4.60;99.90;;;;;;5045395;28;19922;-75
2022/01/15 14:25:17;;;;;;;;;;;4.50;99.90;;;;;;5032798;28;19928;-75
2022/01/15 14:27:59;;;;;;;;;;;4.50;99.90;;;;;;5025044;28;20383;-74
2022/01/15 14:30:25;;;;;;;;;;;4.50;99.90;;;;;;5031653;28;19943;-74
2022/01/15 14:32:50;;;;;;;;;;;4.50;99.90;;;;;;5028540;28;20367;-75
2022/01/15 14:35:16;;;;;;;;;;;4.50;99.90;;;;;;5030173;28;19921;-74
2022/01/15 14:37:42;;;;;;;;;;;4.50;99.90;;;;;;5031943;28;20020;-74
2022/01/15 14:40:07;;;;;;;;;;;4.50;99.90;;;;;;5014791;28;19920;-74
2022/01/15 14:42:33;;;;;;;;;;;4.50;99.90;;;;;;5031526;28;20411;-74
2022/01/15 14:44:58;;;;;;;;;;;4.50;99.90;;;;;;5015278;28;20379;-73
2022/01/15 14:47:24;;;;;;;;;;;4.40;99.90;;;;;;5019764;28;19929;-76
2022/01/15 14:49:50;;;;;;;;;;;4.40;99.90;;;;;;5031296;28;19921;-76
2022/01/15 14:52:19;;;;;;;;;;;4.40;99.90;;;;;;5032079;28;19925;-76
2022/01/15 14:54:44;;;;;;;;;;;4.40;99.90;;;;;;5014899;28;19921;-75
2022/01/15 14:57:10;;;;;;;;;;;4.40;99.90;;;;;;5031255;28;19925;-74
2022/01/15 14:59:36;;;;;;;;;;;4.40;99.90;;;;;;5032886;28;20032;-76
2022/01/15 15:02:01;;;;;;;;;;;4.40;99.90;;;;;;5013943;28;19929;-75
2022/01/15 15:04:27;;;;;;;;;;;4.40;99.90;;;;;;5030815;28;19921;-74
2022/01/15 15:06:53;;;;;;;;;;;4.40;99.90;;;;;;5031213;28;19921;-74